Flight Track Log - Related Links

Times and Time Zones

All times are in EDT time to prevent confusion due to time zone crossing. See the GJS3707 flight status page for this flight to view local times or setup timezone preferences in your user account.

Time Position Orientation Groundspeed Altitude Reporting Facility
EDT Latitude Longitude Course Direction KTS MPH feet Rate Location/Type
Tue 15:23:01 43.5861 -116.3011 81° East 196 226 5,100  Level Salt Center
Tue 15:24:00 43.6348 -115.7071 78° East  Level FlightAware
Tue 15:24:03 43.6356 -116.3322 336° Northwest 229 264 7,300  Level Salt Center
Tue 15:25:00 43.6615 -115.5337 78° East  Level FlightAware
Tue 15:25:05 43.6506 -116.2350 78° East 269 310 8,900  Level Salt Center
Tue 15:26:00 43.6796 -115.3583 83° East  Level FlightAware
Tue 15:26:06 43.6636 -116.1253 81° East 303 349 10,600  Level Salt Center
Tue 15:27:00 43.7052 -115.1868 81° East  Level FlightAware
Tue 15:27:08 43.6833 -115.9761 80° East 353 406 12,200  Level Salt Center
Tue 15:28:00 43.7247 -115.0114 81° East  Level FlightAware
Tue 15:28:09 43.7006 -115.8369 80° East 378 435 13,900  Level Salt Center
Tue 15:29:11 43.7214 -115.6678 80° East 396 456 16,100 1,839 Climbing Salt Center
Tue 15:30:13 43.7397 -115.5197 80° East 407 468 17,700 1,512 Climbing Salt Center
Tue 15:31:14 43.7619 -115.3392 80° East 427 491 19,200 1,415 Climbing Salt Center
Tue 15:32:16 43.7806 -115.1758 81° East 448 516 20,600 1,366 Climbing Salt Center
Tue 15:33:17 43.8006 -115.0117 80° East 453 521 22,000 1,512 Climbing Salt Center
Tue 15:34:19 43.8236 -114.8158 81° East 465 535 23,700 1,561 Climbing Salt Center
Tue 15:35:20 43.8422 -114.6492 81° East 462 532 25,200 1,317 Climbing Salt Center
Tue 15:36:22 43.8633 -114.4531 81° East 463 533 26,400 968 Climbing Salt Center
Tue 15:37:24 43.8833 -114.2792 81° East 474 545 27,200 829 Climbing Salt Center
Tue 15:38:25 43.9053 -114.0711 82° East 489 563 28,100 976 Climbing Salt Center
Tue 15:39:27 43.9247 -113.8867 82° East 494 568 29,200 1,122 Climbing Salt Center
Tue 15:40:28 43.9464 -113.6944 81° East 496 571 30,400 1,073 Climbing Salt Center
Tue 15:41:30 43.9644 -113.5167 82° East 488 562 31,400 829 Climbing Salt Center
Tue 15:42:31 43.9839 -113.3061 83° East 492 566 32,100 732 Climbing Salt Center
Tue 15:43:33 44.0011 -113.1225 83° East 500 575 32,900 976 Climbing Salt Center
Tue 15:44:34 44.0228 -112.9131 82° East 492 566 34,100 878 Climbing Salt Center
Tue 15:45:36 44.0403 -112.7328 82° East 493 567 34,700 439 Climbing Salt Center
Tue 15:46:37 44.0569 -112.5500 83° East 498 573 35,000 146 Climbing Salt Center
Tue 15:47:39 44.0767 -112.3311 83° East 511 588 35,000  Level Salt Center
Tue 15:48:40 44.0889 -112.1456 85° East 508 585 35,000  Level Salt Center
Tue 15:49:42 44.0911 -111.9306 89° East 500 575 35,000  Level Salt Center
Tue 15:50:43 44.0928 -111.7450 89° East 503 579 35,000  Level Salt Center
Tue 15:51:45 44.0928 -111.5303 90° East 502 578 35,000  Level Salt Center
Tue 15:52:46 44.0936 -111.3469 90° East 501 577 35,000  Level Salt Center
Tue 15:53:48 44.0942 -111.1317 90° East 501 577 35,000  Level Salt Center
Tue 15:54:49 44.0942 -110.9469 90° East 502 578 35,000  Level Salt Center
Tue 15:55:51 44.0931 -110.7617 90° East 503 579 35,000  Level Salt Center
Tue 15:56:52 44.0936 -110.5453 90° East 503 579 35,000  Level Salt Center
Tue 15:57:54 44.0917 -110.3619 91° East 500 575 35,000  Level Salt Center
Tue 15:58:55 44.0908 -110.1472 90° East 496 571 35,000  Level Salt Center
Tue 15:59:57 44.0900 -109.9628 90° East 499 574 35,000  Level Salt Center
Tue 16:00:58 44.0869 -109.7483 91° East 498 573 35,000  Level Salt Center
Tue 16:02:00 44.0842 -109.5639 91° East 498 573 35,000  Level Salt Center
Tue 16:03:02 44.0819 -109.3614 91° East 492 566 35,000  Level Salt Center
Tue 16:04:03 44.0789 -109.1769 91° East 497 572 35,000  Level Salt Center
Tue 16:05:04 44.0742 -108.9628 92° East 499 574 35,000  Level Salt Center
Tue 16:06:06 44.0706 -108.7783 91° East 499 574 35,000  Level Salt Center
Tue 16:07:08 44.0667 -108.5942 92° East 499 574 35,000  Level Salt Center
Tue 16:08:09 44.0619 -108.3797 92° East 498 573 35,000  Level Salt Center
Tue 16:09:10 44.0564 -108.1947 92° East 502 578 35,000  Level Salt Center
Tue 16:10:12 44.0511 -107.9803 92° East 499 574 35,000  Level Salt Center
Tue 16:11:13 44.0458 -107.8017 92° East 489 563 35,000  Level Salt Center
Tue 16:12:15 44.0394 -107.5897 92° East 493 567 35,000  Level Salt Center
Tue 16:13:16 44.0344 -107.4058 92° East 498 573 35,000  Level Salt Center
Tue 16:14:18 44.0275 -107.1883 92° East 505 581 35,000  Level Salt Center
Tue 16:15:19 44.0208 -107.0036 93° East 502 578 35,000  Level Salt Center
Tue 16:16:21 44.0139 -106.8206 93° East 498 573 35,000  Level Salt Center
Tue 16:17:33 44.0058 -106.5625 92° East 498 573 35,000  Level Denver Center
Tue 16:18:35 43.9989 -106.3808 93° East 494 568 35,000  Level Denver Center
Tue 16:19:37 44.0011 -106.1964 89° East 498 573 35,000  Level Denver Center
Tue 16:20:39 44.0028 -105.9794 89° East 502 578 35,000  Level Denver Center
Tue 16:21:40 44.0047 -105.7928 89° East 504 580 35,000  Level Denver Center
Tue 16:22:42 44.0044 -105.5781 90° East 499 574 35,000  Level Denver Center
Tue 16:23:44 44.0044 -105.3944 90° East 496 571 35,000  Level Denver Center
Tue 16:24:45 44.0039 -105.2100 90° East 497 572 35,000  Level Denver Center
Tue 16:25:47 44.0036 -104.9944 90° East 498 573 35,000  Level Denver Center
Tue 16:26:49 44.0028 -104.8069 90° East 503 579 35,000  Level Denver Center
Tue 16:27:51 44.0003 -104.5972 91° East 490 564 35,000  Level Denver Center
Tue 16:28:52 43.9986 -104.4094 91° East 502 578 35,000  Level Denver Center
Tue 16:29:54 43.9953 -104.1956 91° East 498 573 35,000  Level Denver Center
Tue 16:30:56 43.9936 -104.0097 91° East 502 578 35,000  Level Denver Center
Tue 16:31:57 43.9908 -103.8261 91° East 500 575 35,000  Level Denver Center
Tue 16:32:59 43.9881 -103.6117 91° East 497 572 35,000  Level Denver Center
Tue 16:34:01 43.9844 -103.4264 91° East 500 575 35,000  Level Denver Center
Tue 16:35:03 43.9817 -103.2108 91° East 500 575 35,000  Level Denver Center
Tue 16:36:04 43.9781 -103.0269 91° East 499 574 35,000  Level Denver Center
Tue 16:37:06 43.9717 -102.8125 92° East 496 571 35,000  Level Denver Center
Tue 16:38:08 43.9650 -102.6236 93° East 493 567 35,000  Level Denver Center
Tue 16:39:10 43.9603 -102.4336 92° East 494 568 35,000  Level Denver Center
Tue 16:40:12 43.9528 -102.2392 93° East 501 577 35,000  Level Denver Center
Tue 16:41:13 43.9442 -102.0417 93° East 508 585 35,000  Level Denver Center
Tue 16:42:15 43.9372 -101.8456 93° East 510 587 35,000  Level Denver Center
Tue 16:43:17 43.9344 -101.6556 91° East 502 578 35,000  Level Denver Center
Tue 16:44:19 43.9244 -101.4253 93° East 501 577 35,000  Level Denver Center
Tue 16:44:53 43.9208 -101.3481 94° East 504 580 35,000  Level Minneapolis Center
Tue 16:46:07 43.9131 -101.1214 93° East 497 572 35,000  Level Minneapolis Center
Tue 16:47:09 43.9033 -100.8983 93° East 488 562 35,000  Level Minneapolis Center
Tue 16:48:12 43.9253 -100.7147 81° East 493 567 35,000  Level Minneapolis Center
Tue 16:49:14 44.0069 -100.5697 52° Northeast 484 557 35,000  Level Minneapolis Center
Tue 16:50:16 44.0886 -100.4236 52° Northeast 480 552 35,000  Level Minneapolis Center
Tue 16:51:18 44.1686 -100.2758 53° Northeast 480 552 35,000  Level Minneapolis Center
Tue 16:52:20 44.2650 -100.0961 53° Northeast 483 556 35,000  Level Minneapolis Center
Tue 16:53:34 44.3486 -99.9492 51° Northeast 485 558 35,000  Level Minneapolis Center
Tue 16:54:36 44.4486 -99.7733 51° Northeast 484 557 35,000  Level Minneapolis Center
Tue 16:55:39 44.5319 -99.6244 52° Northeast 488 562 35,000  Level Minneapolis Center
Tue 16:56:53 44.5956 -99.3694 71° East 499 574 35,000  Level Minneapolis Center
Tue 16:57:55 44.6208 -99.1800 79° East 500 575 35,000  Level Minneapolis Center
Tue 16:58:57 44.5917 -98.9894 102° East 503 579 35,000  Level Minneapolis Center
Tue 16:59:59 44.5472 -98.8069 109° East 497 572 35,000  Level Minneapolis Center
Tue 17:01:01 44.5047 -98.6236 108° East 497 572 35,000  Level Minneapolis Center
Tue 17:02:15 44.4603 -98.4419 109° East 496 571 35,000  Level Minneapolis Center
Tue 17:03:30 44.3931 -98.1644 109° East 498 573 35,000  Level Minneapolis Center
Tue 17:04:32 44.3483 -97.9783 109° East 504 580 35,000  Level Minneapolis Center
Tue 17:05:34 44.3019 -97.7933 109° East 506 582 35,000  Level Minneapolis Center
Tue 17:06:37 44.2489 -97.5717 108° East 504 580 35,000  Level Minneapolis Center
Tue 17:07:39 44.2036 -97.3903 109° East 499 574 35,000  Level Minneapolis Center
Tue 17:08:41 44.1572 -97.2100 110° East 498 573 35,000  Level Minneapolis Center
Tue 17:09:43 44.1119 -97.0317 109° East 493 567 35,000  Level Minneapolis Center
Tue 17:10:45 44.0664 -96.8528 109° East 494 568 35,000  Level Minneapolis Center
Tue 17:11:47 44.0125 -96.6408 109° East 489 563 35,000  Level Minneapolis Center
Tue 17:12:49 43.9664 -96.4644 110° East 492 566 35,000  Level Minneapolis Center
Tue 17:13:51 43.9208 -96.2869 110° East 496 571 35,000  Level Minneapolis Center
Tue 17:14:53 43.8736 -96.1119 110° East 494 568 35,000  Level Minneapolis Center
Tue 17:15:55 43.8275 -95.9350 110° East 494 568 35,000  Level Minneapolis Center
Tue 17:16:57 43.7711 -95.7242 110° East 493 567 35,000  Level Minneapolis Center
Tue 17:17:59 43.7231 -95.5475 111° Southeast 493 567 35,000  Level Minneapolis Center
Tue 17:19:01 43.6753 -95.3703 110° East 495 570 35,000  Level Minneapolis Center
Tue 17:20:04 43.6272 -95.1939 111° Southeast 494 568 35,000  Level Minneapolis Center
Tue 17:21:06 43.5775 -95.0153 111° Southeast 498 573 35,000  Level Minneapolis Center
Tue 17:22:08 43.5183 -94.8022 111° Southeast 499 574 35,000  Level Minneapolis Center
Tue 17:23:09 43.4794 -94.6625 111° Southeast 492 566 35,000  Level Minneapolis Center
Tue 17:24:12 43.4208 -94.4528 111° Southeast 490 564 35,000  Level Minneapolis Center
Tue 17:25:14 43.3717 -94.2794 111° Southeast 489 563 35,000  Level Minneapolis Center
Tue 17:26:16 43.2972 -94.1136 122° Southeast 491 565 35,000  Level Minneapolis Center
Tue 17:27:18 43.2239 -93.9611 123° Southeast 486 559 35,000  Level Minneapolis Center
Tue 17:28:20 43.1528 -93.8022 121° Southeast 492 566 35,000  Level Minneapolis Center
Tue 17:29:22 43.1036 -93.5861 107° East 495 570 35,000  Level Minneapolis Center
Tue 17:30:24 43.0694 -93.4033 104° East 499 574 35,000 -97 Level Minneapolis Center
Tue 17:31:26 43.0228 -93.2247 110° East 501 577 34,800 -581 Descending Minneapolis Center
Tue 17:32:28 42.9675 -93.0544 114° Southeast 497 572 33,800 -960 Descending Minneapolis Center
Tue 17:33:31 42.9297 -92.8772 106° East 491 565 32,800 -1,056 Descending Minneapolis Center
Tue 17:34:33 42.9375 -92.6544 87° East 492 566 31,600 -871 Descending Minneapolis Center
Tue 17:35:35 42.9425 -92.4664 88° East 497 572 31,000 -290 Descending Minneapolis Center
Tue 17:36:37 42.9483 -92.2778 88° East 501 577 31,000  Level Minneapolis Center
Tue 17:37:39 42.9531 -92.0894 88° East 500 575 31,000  Level Minneapolis Center
Tue 17:38:41 42.9583 -91.8978 88° East 502 578 31,000  Level Minneapolis Center
Tue 17:39:43 42.9644 -91.6758 88° East 478 550 31,000  Level Minneapolis Center
Tue 17:40:45 42.9639 -91.5033 90° East 451 519 31,000 -48 Level Minneapolis Center
Tue 17:41:47 42.9456 -91.3325 98° East 452 520 30,900 -387 Descending Minneapolis Center
Tue 17:42:49 42.8489 -91.2286 142° Southeast 448 516 30,200 -726 Descending Minneapolis Center
Tue 17:43:51 42.7439 -91.1508 151° Southeast 433 498 29,400 -756 Descending Minneapolis Center
Tue 17:44:48 42.6419 -91.0758 152° Southeast 423 487 28,700 -1,008 Descending Chicago Center
Tue 17:45:50 42.5500 -90.9803 143° Southeast 436 502 27,400 -1,355 Descending Chicago Center
Tue 17:46:52 42.5325 -90.8139 98° East 461 531 25,900 -1,113 Descending Chicago Center
Tue 17:47:54 42.5486 -90.6436 83° East 463 533 25,100 -823 Descending Chicago Center
Tue 17:48:56 42.5511 -90.4414 89° East 452 520 24,200 -532 Descending Chicago Center
Tue 17:49:58 42.5539 -90.2739 89° East 449 517 24,000 -97 Descending Chicago Center
Tue 17:51:00 42.5547 -90.1061 90° East 450 518 24,000  Level Chicago Center
Tue 17:52:03 42.5567 -89.9056 89° East 460 529 24,000 -48 Level Chicago Center
Tue 17:53:05 42.5550 -89.7378 91° East 450 518 23,900 -677 Descending Chicago Center
Tue 17:54:07 42.5308 -89.5719 101° East 447 514 22,600 -1,355 Descending Chicago Center
Tue 17:55:09 42.5094 -89.4156 100° East 426 490 21,100 -1,548 Descending Chicago Center
Tue 17:56:11 42.4875 -89.2625 101° East 415 478 19,400 -2,226 Descending Chicago Center
Tue 17:57:13 42.4622 -89.0919 101° East 399 459 16,500 -2,323 Descending Chicago Center
Tue 17:58:15 42.4414 -88.9492 101° East 389 448 14,600 -1,742 Descending Chicago Center
Tue 17:59:17 42.4222 -88.8147 101° East 371 427 12,900 -1,694 Descending Chicago Center
Tue 18:00:19 42.4025 -88.6878 102° East 353 406 11,100 -1,645 Descending Chicago Center
Tue 18:01:21 42.3847 -88.5603 101° East 349 402 9,500 -1,065 Descending Chicago Center
Tue 18:02:23 42.3550 -88.4303 107° East 318 366 8,900 -624 Descending Chicago Center
Tue 18:03:26 42.3747 -88.3478 72° East 257 296 8,200 -720 Descending Chicago Center
Tue 18:04:28 42.3369 -88.2903 132° Southeast 233 268 7,400 -726 Descending Chicago Center
Tue 18:05:30 42.2856 -88.2611 157° South 202 232 6,700 -629 Descending Chicago Center
Tue 18:06:32 42.2422 -88.2206 145° Southeast 191 220 6,100 -581 Descending Chicago Center
Tue 18:07:34 42.2014 -88.1722 139° Southeast 194 223 5,500 -532 Descending Chicago Center
Tue 18:08:36 42.1539 -88.1186 140° Southeast 189 217 5,000 -696 Descending Chicago Center
Tue 18:09:26 42.1167 -88.0833 145° Southeast 186 214 4,200 -1,026 Descending Chicago TRACON
Tue 18:10:33 42.0833 -88.0333 132° Southeast 185 213 3,000 -1,039 Descending Chicago TRACON
Tue 18:11:33 42.0333 -87.9833 143° Southeast 157 181 2,000 -895 Descending Chicago TRACON
Tue 18:12:27 42.0167 -87.9667 143° Southeast 139 160 1,300 -778 Descending Chicago TRACON

Login

Don't have an account? Register now (free) for customized features, flight alerts, and more!